Time;durP1;ratioP1;P1;durP2;ratioP2;P2;SDS_P1;SDS_P2;PMS_P1;PMS_P2;Temp;Humidity;BMP_temperature;BMP_pressure;BME280_temperature;BME280_humidity;BME280_pressure;Samples;Min_cycle;Max_cycle;Signal;HPM_P1;HPM_P2
2023/06/22 00:02:04;;;;;;;4.95;4.53;;;;;;;;;;10164575;28;20227;-78
2023/06/22 00:07:05;;;;;;;5.78;5.35;;;;;;;;;;10185858;28;20964;-77
2023/06/22 00:12:07;;;;;;;5.78;5.38;;;;;;;;;;10165404;28;20219;-77
2023/06/22 00:17:08;;;;;;;6.28;5.68;;;;;;;;;;10159040;28;20467;-77
2023/06/22 00:22:09;;;;;;;7.20;5.32;;;;;;;;;;10164791;28;24620;-80
2023/06/22 00:27:10;;;;;;;6.00;5.60;;;;;;;;;;10162772;28;21476;-77
2023/06/22 00:32:11;;;;;;;5.32;4.90;;;;;;;;;;10162311;28;20606;-74
2023/06/22 00:37:12;;;;;;;6.43;5.63;;;;;;;;;;10157321;28;20232;-76
2023/06/22 00:42:13;;;;;;;5.60;5.20;;;;;;;;;;10159734;28;20335;-75
2023/06/22 00:47:16;;;;;;;4.85;4.55;;;;;;;;;;10169378;28;20224;-76
2023/06/22 00:52:20;;;;;;;6.32;5.85;;;;;;;;;;10176458;28;20721;-76
2023/06/22 00:57:22;;;;;;;6.35;5.75;;;;;;;;;;10171797;28;20343;-77
2023/06/22 01:02:23;;;;;;;5.35;5.10;;;;;;;;;;10169967;28;20225;-77
2023/06/22 01:07:39;;;;;;;5.88;5.47;;;;;;;;;;10143004;28;20867;-74
2023/06/22 01:12:43;;;;;;;5.65;5.32;;;;;;;;;;10169939;28;20224;-76
2023/06/22 01:17:44;;;;;;;5.97;5.57;;;;;;;;;;10171704;28;20335;-76
2023/06/22 01:23:06;;;;;;;6.40;5.80;;;;;;;;;;10138379;28;20228;-76
2023/06/22 01:28:18;;;;;;;5.70;5.30;;;;;;;;;;10137470;28;21608;-75
2023/06/22 01:33:19;;;;;;;5.28;4.90;;;;;;;;;;10158943;28;20447;-76
2023/06/22 01:38:22;;;;;;;5.85;5.32;;;;;;;;;;10159728;28;20786;-78
2023/06/22 01:43:24;;;;;;;5.55;5.03;;;;;;;;;;10161821;28;20548;-75
2023/06/22 01:48:25;;;;;;;8.48;5.47;;;;;;;;;;10148686;28;20225;-76
2023/06/22 01:53:27;;;;;;;5.90;5.50;;;;;;;;;;10158501;28;20933;-74
2023/06/22 01:58:29;;;;;;;6.00;5.50;;;;;;;;;;10171036;28;20353;-78
2023/06/22 02:03:32;;;;;;;5.18;4.88;;;;;;;;;;10151336;28;20220;-77
2023/06/22 02:08:57;;;;;;;6.75;6.15;;;;;;;;;;10149847;28;20252;-76
2023/06/22 02:13:58;;;;;;;6.15;5.63;;;;;;;;;;10157936;28;20905;-77
2023/06/22 02:19:02;;;;;;;6.28;5.70;;;;;;;;;;10163374;28;20225;-76
2023/06/22 02:24:04;;;;;;;5.75;5.35;;;;;;;;;;10189285;28;21224;-75
2023/06/22 02:29:05;;;;;;;7.50;6.63;;;;;;;;;;10166445;28;20228;-78
2023/06/22 02:34:06;;;;;;;8.55;6.28;;;;;;;;;;10163662;28;20227;-77
2023/06/22 02:39:07;;;;;;;6.35;5.85;;;;;;;;;;10168588;28;20704;-76
2023/06/22 02:44:08;;;;;;;7.07;5.50;;;;;;;;;;10170663;28;20232;-74
2023/06/22 02:49:09;;;;;;;5.93;5.50;;;;;;;;;;10157402;28;20233;-75
2023/06/22 02:54:10;;;;;;;7.95;5.95;;;;;;;;;;10178491;28;20685;-77
2023/06/22 02:59:12;;;;;;;7.68;6.75;;;;;;;;;;10178528;28;20567;-76
2023/06/22 03:04:13;;;;;;;12.43;7.13;;;;;;;;;;10167239;28;20373;-76
2023/06/22 03:09:14;;;;;;;8.82;7.00;;;;;;;;;;10176820;28;20229;-76
2023/06/22 03:14:16;;;;;;;7.15;6.43;;;;;;;;;;10158696;28;21232;-75
2023/06/22 03:19:17;;;;;;;6.38;5.85;;;;;;;;;;10153667;28;20216;-76
2023/06/22 03:24:18;;;;;;;7.30;6.70;;;;;;;;;;10162495;28;20749;-76
2023/06/22 03:29:19;;;;;;;7.22;6.63;;;;;;;;;;10171219;28;21231;-76
2023/06/22 03:34:20;;;;;;;7.20;6.65;;;;;;;;;;10163298;28;21128;-77
2023/06/22 03:39:21;;;;;;;7.55;6.10;;;;;;;;;;10269269;28;20232;-78
2023/06/22 03:44:23;;;;;;;6.57;5.97;;;;;;;;;;10281688;28;20220;-75
2023/06/22 03:49:24;;;;;;;6.32;5.75;;;;;;;;;;10282617;28;21084;-75
2023/06/22 03:54:25;;;;;;;6.97;6.43;;;;;;;;;;10284062;28;20259;-74
2023/06/22 03:59:27;;;;;;;5.68;5.28;;;;;;;;;;10282198;28;20259;-77
2023/06/22 04:04:28;;;;;;;6.15;5.32;;;;;;;;;;10280886;28;20221;-75
2023/06/22 04:09:29;;;;;;;6.05;5.53;;;;;;;;;;10277930;28;20225;-75
2023/06/22 04:14:30;;;;;;;5.38;5.07;;;;;;;;;;10286473;28;20637;-75
2023/06/22 04:19:31;;;;;;;5.78;5.30;;;;;;;;;;10293758;28;20762;-78
2023/06/22 04:24:32;;;;;;;8.10;5.43;;;;;;;;;;10287703;28;23903;-76
2023/06/22 04:29:33;;;;;;;6.20;5.65;;;;;;;;;;10281032;28;20618;-75
2023/06/22 04:34:34;;;;;;;5.47;5.18;;;;;;;;;;10284256;28;20220;-76
2023/06/22 04:39:35;;;;;;;5.90;5.55;;;;;;;;;;10267910;28;20219;-76
2023/06/22 04:44:36;;;;;;;6.10;5.53;;;;;;;;;;10261111;28;20267;-75
2023/06/22 04:49:38;;;;;;;6.30;5.72;;;;;;;;;;10266032;28;21249;-76
2023/06/22 04:54:40;;;;;;;5.93;5.43;;;;;;;;;;10263282;28;20323;-75
2023/06/22 04:59:41;;;;;;;5.47;5.07;;;;;;;;;;10278071;28;20227;-76
2023/06/22 05:04:42;;;;;;;5.00;4.60;;;;;;;;;;10283653;28;20216;-77
2023/06/22 05:09:43;;;;;;;5.47;4.97;;;;;;;;;;10276409;28;20220;-76
2023/06/22 05:14:44;;;;;;;7.57;4.65;;;;;;;;;;10268655;28;20218;-76
2023/06/22 05:19:48;;;;;;;5.28;4.97;;;;;;;;;;10264203;28;20219;-76
2023/06/22 05:24:49;;;;;;;7.15;5.25;;;;;;;;;;10271944;28;20221;-75
2023/06/22 05:29:50;;;;;;;5.97;5.53;;;;;;;;;;10285964;28;20331;-74
2023/06/22 05:34:51;;;;;;;5.65;5.13;;;;;;;;;;10244746;28;20213;-78
2023/06/22 05:39:52;;;;;;;5.93;5.40;;;;;;;;;;10269707;28;20320;-77
2023/06/22 05:44:53;;;;;;;6.38;5.88;;;;;;;;;;10287751;28;20336;-75
2023/06/22 05:49:54;;;;;;;6.13;5.82;;;;;;;;;;10263998;28;20233;-76
2023/06/22 05:54:55;;;;;;;6.18;5.82;;;;;;;;;;10262458;28;20856;-75
2023/06/22 05:59:56;;;;;;;6.20;5.65;;;;;;;;;;10268011;28;20218;-76
2023/06/22 06:04:57;;;;;;;6.50;6.00;;;;;;;;;;10281159;28;20848;-76
2023/06/22 06:09:58;;;;;;;6.05;5.60;;;;;;;;;;10279483;28;20216;-77
2023/06/22 06:14:59;;;;;;;6.18;5.80;;;;;;;;;;10276451;28;20255;-76
2023/06/22 06:20:00;;;;;;;6.70;6.05;;;;;;;;;;10280292;28;20224;-75
2023/06/22 06:25:01;;;;;;;6.57;6.18;;;;;;;;;;10281929;28;20224;-76
2023/06/22 06:30:03;;;;;;;9.15;6.50;;;;;;;;;;10281891;28;21019;-76
2023/06/22 06:35:07;;;;;;;7.47;6.78;;;;;;;;;;10282590;28;20309;-74
2023/06/22 06:40:10;;;;;;;;;;;;;;;;;;10251875;28;22674;-75
2023/06/22 06:45:11;;;;;;;;;;;;;;;;;;10285795;28;20012;-75
2023/06/22 06:50:12;;;;;;;;;;;;;;;;;;10281290;28;20026;-74
2023/06/22 06:55:13;;;;;;;;;;;;;;;;;;10281426;28;19973;-74
2023/06/22 07:00:15;;;;;;;6.15;5.75;;;;;;;;;;10253753;28;20031;-75
2023/06/22 07:05:16;;;;;;;6.72;6.22;;;;;;;;;;10275697;28;20369;-74
2023/06/22 07:10:17;;;;;;;7.15;6.43;;;;;;;;;;10259437;28;20224;-76
2023/06/22 07:15:18;;;;;;;6.93;6.30;;;;;;;;;;10280003;28;20205;-75
2023/06/22 07:20:19;;;;;;;6.80;6.18;;;;;;;;;;10247676;28;20194;-76
2023/06/22 07:25:20;;;;;;;8.68;6.03;;;;;;;;;;10238242;28;20239;-74
2023/06/22 07:30:21;;;;;;;7.97;7.18;;;;;;;;;;10276771;28;20244;-74
2023/06/22 07:35:22;;;;;;;6.13;5.72;;;;;;;;;;10261178;28;20233;-75
2023/06/22 07:40:23;;;;;;;7.18;6.50;;;;;;;;;;10278961;28;20224;-75
2023/06/22 07:45:24;;;;;;;7.43;6.55;;;;;;;;;;10285123;28;20741;-74
2023/06/22 07:50:25;;;;;;;6.97;6.47;;;;;;;;;;10269769;28;20212;-75
2023/06/22 07:55:26;;;;;;;7.13;6.57;;;;;;;;;;10246939;28;20232;-75
2023/06/22 08:00:28;;;;;;;7.03;6.63;;;;;;;;;;10262025;28;20220;-74
2023/06/22 08:05:29;;;;;;;7.43;6.93;;;;;;;;;;10252205;28;20232;-75
2023/06/22 08:10:30;;;;;;;8.00;7.13;;;;;;;;;;10261079;28;20264;-74
2023/06/22 08:15:31;;;;;;;7.20;6.35;;;;;;;;;;10280256;28;20217;-75
2023/06/22 08:20:32;;;;;;;7.13;6.63;;;;;;;;;;10275307;28;20217;-74
2023/06/22 08:25:34;;;;;;;7.32;6.78;;;;;;;;;;10277446;28;20585;-74
2023/06/22 08:30:35;;;;;;;7.57;6.82;;;;;;;;;;10254896;28;22447;-75
2023/06/22 08:35:36;;;;;;;7.28;6.35;;;;;;;;;;10255555;28;20229;-75
2023/06/22 08:40:37;;;;;;;7.15;6.75;;;;;;;;;;10271368;28;20283;-75
2023/06/22 08:45:38;;;;;;;6.95;6.45;;;;;;;;;;10274459;28;20231;-77
2023/06/22 08:50:40;;;;;;;7.90;7.25;;;;;;;;;;10272958;28;20221;-75
2023/06/22 08:55:41;;;;;;;7.68;6.95;;;;;;;;;;10285918;28;20232;-75
2023/06/22 09:00:42;;;;;;;6.97;6.53;;;;;;;;;;10264813;28;20224;-75
2023/06/22 09:05:43;;;;;;;7.95;7.35;;;;;;;;;;10267401;28;20221;-75
2023/06/22 09:10:44;;;;;;;6.88;6.32;;;;;;;;;;10283533;28;20282;-76
2023/06/22 09:15:45;;;;;;;7.88;7.28;;;;;;;;;;10285678;28;20271;-75
2023/06/22 09:20:46;;;;;;;7.35;6.88;;;;;;;;;;10288067;28;20217;-75
2023/06/22 09:25:47;;;;;;;7.40;6.82;;;;;;;;;;10267935;28;20227;-75
2023/06/22 09:30:48;;;;;;;7.70;7.18;;;;;;;;;;10285352;28;20212;-76
2023/06/22 09:35:50;;;;;;;8.15;7.55;;;;;;;;;;10247573;28;20684;-75
2023/06/22 09:40:51;;;;;;;8.50;7.68;;;;;;;;;;10269386;28;20214;-76
2023/06/22 09:45:52;;;;;;;7.75;7.15;;;;;;;;;;10284010;28;20287;-76
2023/06/22 09:50:53;;;;;;;7.18;6.68;;;;;;;;;;10272085;28;20215;-75
2023/06/22 09:55:54;;;;;;;7.43;6.82;;;;;;;;;;10270299;28;21035;-75
2023/06/22 10:00:55;;;;;;;7.68;7.18;;;;;;;;;;10280493;28;20221;-75
2023/06/22 10:05:56;;;;;;;8.27;7.65;;;;;;;;;;10265001;28;20240;-74
2023/06/22 10:10:57;;;;;;;7.90;7.32;;;;;;;;;;10258596;28;20248;-76
2023/06/22 10:15:58;;;;;;;8.27;7.68;;;;;;;;;;10267729;28;20750;-78
2023/06/22 10:21:00;;;;;;;9.02;8.38;;;;;;;;;;10261538;28;20243;-77
2023/06/22 10:26:01;;;;;;;8.23;7.72;;;;;;;;;;10253116;28;20271;-76
2023/06/22 10:31:02;;;;;;;8.70;8.05;;;;;;;;;;10282975;28;21183;-73
2023/06/22 10:36:04;;;;;;;9.70;8.80;;;;;;;;;;10278091;28;20296;-76
2023/06/22 10:41:05;;;;;;;8.57;7.97;;;;;;;;;;10285321;28;20213;-76
2023/06/22 10:46:07;;;;;;;8.43;7.72;;;;;;;;;;10279272;28;20224;-78
2023/06/22 10:51:08;;;;;;;8.65;8.05;;;;;;;;;;10270253;28;20216;-76
2023/06/22 10:56:09;;;;;;;8.35;7.85;;;;;;;;;;10280442;28;20228;-73
2023/06/22 11:01:10;;;;;;;8.98;8.18;;;;;;;;;;10284354;28;20802;-76
2023/06/22 11:06:10;;;;;;;8.15;7.65;;;;;;;;;;10274528;28;20233;-74
2023/06/22 11:11:11;;;;;;;8.52;7.93;;;;;;;;;;10262721;28;20209;-77
2023/06/22 11:16:12;;;;;;;8.27;7.43;;;;;;;;;;10267722;28;20228;-77
2023/06/22 11:21:13;;;;;;;9.13;8.27;;;;;;;;;;10285351;28;20231;-76
2023/06/22 11:26:14;;;;;;;8.63;7.97;;;;;;;;;;10263338;28;20225;-77
2023/06/22 11:31:15;;;;;;;9.15;8.32;;;;;;;;;;10279410;28;20259;-76
2023/06/22 11:36:16;;;;;;;8.45;7.85;;;;;;;;;;10271645;28;20213;-77
2023/06/22 11:41:18;;;;;;;8.40;7.88;;;;;;;;;;10271108;28;20307;-77
2023/06/22 11:46:19;;;;;;;7.93;7.45;;;;;;;;;;10263456;28;20271;-76
2023/06/22 11:51:20;;;;;;;7.78;7.32;;;;;;;;;;10279467;28;20236;-77
2023/06/22 11:56:21;;;;;;;8.60;8.02;;;;;;;;;;10279669;28;20221;-77
2023/06/22 12:01:22;;;;;;;8.20;7.68;;;;;;;;;;10261673;28;20245;-77
2023/06/22 12:06:23;;;;;;;8.52;8.02;;;;;;;;;;10272281;28;20745;-77
2023/06/22 12:11:24;;;;;;;9.00;8.23;;;;;;;;;;10267804;28;20241;-77
2023/06/22 12:16:25;;;;;;;8.13;7.63;;;;;;;;;;10264485;28;20231;-77
2023/06/22 12:21:26;;;;;;;7.45;7.07;;;;;;;;;;10271456;28;20861;-75
2023/06/22 12:26:27;;;;;;;8.05;7.55;;;;;;;;;;10272635;28;20293;-79
2023/06/22 12:31:28;;;;;;;7.85;7.30;;;;;;;;;;10268318;28;20781;-77
2023/06/22 12:36:29;;;;;;;9.10;8.30;;;;;;;;;;10262728;28;20799;-78
2023/06/22 12:41:30;;;;;;;8.02;7.53;;;;;;;;;;10299308;28;20248;-78
2023/06/22 12:46:37;;;;;;;7.53;7.13;;;;;;;;;;10298403;28;20236;-79
2023/06/22 12:51:42;;;;;;;8.25;7.75;;;;;;;;;;10281932;28;20592;-77
2023/06/22 12:56:44;;;;;;;9.02;8.45;;;;;;;;;;10281994;28;20240;-79
2023/06/22 13:01:46;;;;;;;8.05;7.45;;;;;;;;;;10287003;28;20240;-79
2023/06/22 13:06:47;;;;;;;12.98;8.13;;;;;;;;;;10267323;28;20221;-79
2023/06/22 13:11:48;;;;;;;8.07;7.57;;;;;;;;;;10277300;28;20217;-79
2023/06/22 13:16:50;;;;;;;7.60;7.20;;;;;;;;;;10286056;28;20221;-78
2023/06/22 13:21:51;;;;;;;7.80;7.40;;;;;;;;;;10255944;28;20217;-78
2023/06/22 13:26:52;;;;;;;8.80;8.00;;;;;;;;;;10268056;28;20307;-79
2023/06/22 13:31:57;;;;;;;7.85;7.35;;;;;;;;;;10269403;28;22417;-79
2023/06/22 13:36:58;;;;;;;7.05;6.68;;;;;;;;;;10274773;28;20217;-77
2023/06/22 13:41:59;;;;;;;7.35;6.65;;;;;;;;;;10273067;28;20200;-79
2023/06/22 13:47:00;;;;;;;7.68;7.18;;;;;;;;;;10282201;28;20225;-79
2023/06/22 13:52:03;;;;;;;7.50;6.90;;;;;;;;;;10275471;28;20989;-76
2023/06/22 13:57:04;;;;;;;7.28;6.88;;;;;;;;;;10252808;28;20316;-77
2023/06/22 14:02:05;;;;;;;7.97;7.35;;;;;;;;;;10271856;28;20811;-78
2023/06/22 14:07:06;;;;;;;7.93;7.43;;;;;;;;;;10276178;28;20238;-80
2023/06/22 14:12:08;;;;;;;7.38;6.95;;;;;;;;;;10290098;28;20644;-80
2023/06/22 14:17:09;;;;;;;7.28;6.88;;;;;;;;;;10271572;28;20232;-80
2023/06/22 14:22:10;;;;;;;7.30;6.90;;;;;;;;;;10280400;28;20243;-81
2023/06/22 14:27:11;;;;;;;7.10;6.80;;;;;;;;;;10292999;28;20228;-81
2023/06/22 14:32:12;;;;;;;7.07;6.65;;;;;;;;;;10290206;28;20211;-81
2023/06/22 14:37:13;;;;;;;7.22;6.85;;;;;;;;;;10289783;28;20880;-81
2023/06/22 14:42:14;;;;;;;6.82;6.43;;;;;;;;;;10284701;28;20227;-80
2023/06/22 14:47:15;;;;;;;6.68;6.28;;;;;;;;;;10292187;28;20220;-80
2023/06/22 14:52:16;;;;;;;9.23;7.13;;;;;;;;;;10289824;28;21185;-80
2023/06/22 14:57:19;;;;;;;7.38;6.88;;;;;;;;;;10277880;28;20699;-80
2023/06/22 15:02:20;;;;;;;7.57;7.07;;;;;;;;;;10275116;28;20214;-81
2023/06/22 15:07:21;;;;;;;6.95;6.57;;;;;;;;;;10291831;28;20231;-80
2023/06/22 15:12:22;;;;;;;8.35;6.75;;;;;;;;;;10290369;28;20926;-81
2023/06/22 15:17:23;;;;;;;7.07;6.47;;;;;;;;;;10279096;28;20283;-80
2023/06/22 15:22:24;;;;;;;6.80;6.45;;;;;;;;;;10290330;28;20228;-80
2023/06/22 15:27:25;;;;;;;7.10;6.50;;;;;;;;;;10293751;28;20793;-81
2023/06/22 15:32:28;;;;;;;7.18;6.78;;;;;;;;;;10281450;28;20213;-79
2023/06/22 15:37:29;;;;;;;7.07;6.68;;;;;;;;;;10265483;28;20235;-80
2023/06/22 15:42:30;;;;;;;6.63;6.15;;;;;;;;;;10281527;28;20625;-80
2023/06/22 15:47:31;;;;;;;6.72;6.32;;;;;;;;;;10275648;28;20224;-77
2023/06/22 15:52:32;;;;;;;6.00;5.70;;;;;;;;;;10278225;28;20216;-80
2023/06/22 15:57:34;;;;;;;6.00;5.70;;;;;;;;;;10271881;28;20224;-79
2023/06/22 16:02:35;;;;;;;6.00;5.70;;;;;;;;;;10286676;28;20704;-81
2023/06/22 16:07:37;;;;;;;6.05;5.55;;;;;;;;;;10248707;28;20229;-82
2023/06/22 16:12:42;;;;;;;6.05;5.70;;;;;;;;;;10275884;28;20321;-79
2023/06/22 16:17:43;;;;;;;5.75;5.35;;;;;;;;;;10256071;28;20307;-80
2023/06/22 16:22:45;;;;;;;5.32;5.03;;;;;;;;;;10283477;28;20244;-79
2023/06/22 16:27:46;;;;;;;5.10;4.85;;;;;;;;;;10270313;28;20294;-78
2023/06/22 16:32:51;;;;;;;5.45;5.10;;;;;;;;;;10269355;28;20205;-78
2023/06/22 16:37:56;;;;;;;5.18;4.75;;;;;;;;;;10292468;28;20216;-78
2023/06/22 16:42:57;;;;;;;5.43;5.03;;;;;;;;;;10290337;28;20332;-77
2023/06/22 16:47:58;;;;;;;5.32;5.03;;;;;;;;;;10275037;28;20607;-81
2023/06/22 16:52:59;;;;;;;5.45;5.15;;;;;;;;;;10276900;28;20695;-79
2023/06/22 16:58:01;;;;;;;5.32;4.40;;;;;;;;;;10294353;28;20216;-78
2023/06/22 17:03:04;;;;;;;4.43;4.22;;;;;;;;;;10271944;28;20602;-77
2023/06/22 17:08:05;;;;;;;4.15;4.05;;;;;;;;;;10263791;28;20252;-77
2023/06/22 17:13:06;;;;;;;4.53;4.32;;;;;;;;;;10298695;28;20268;-78
2023/06/22 17:18:07;;;;;;;4.20;4.00;;;;;;;;;;10279880;28;20230;-79
2023/06/22 17:23:08;;;;;;;4.05;3.90;;;;;;;;;;10282941;28;20221;-78
2023/06/22 17:28:09;;;;;;;4.32;4.13;;;;;;;;;;10277488;28;20232;-78
2023/06/22 17:33:15;;;;;;;4.13;4.00;;;;;;;;;;10290540;28;20217;-79
2023/06/22 17:38:22;;;;;;;5.90;4.65;;;;;;;;;;10275490;28;20857;-79
2023/06/22 17:43:23;;;;;;;4.40;4.10;;;;;;;;;;10291505;28;20592;-79
2023/06/22 17:48:24;;;;;;;12.43;4.72;;;;;;;;;;10287138;28;20224;-80
2023/06/22 17:53:27;;;;;;;1.63;1.50;;;;;;;;;;10252908;28;20595;-78
2023/06/22 17:58:29;;;;;;;4.60;1.10;;;;;;;;;;10258277;28;20231;-78
2023/06/22 18:03:30;;;;;;;1.30;0.77;;;;;;;;;;10260228;28;20678;-79
2023/06/22 18:08:31;;;;;;;2.95;1.00;;;;;;;;;;10276169;28;20220;-77
2023/06/22 18:13:33;;;;;;;2.70;1.13;;;;;;;;;;10259534;28;20218;-79
2023/06/22 18:18:35;;;;;;;3.00;1.67;;;;;;;;;;10281569;28;20815;-77
2023/06/22 18:23:37;;;;;;;1.40;1.30;;;;;;;;;;10244507;28;20263;-77
2023/06/22 18:28:38;;;;;;;1.85;1.42;;;;;;;;;;10245132;28;20243;-78
2023/06/22 18:33:39;;;;;;;5.13;1.75;;;;;;;;;;10267121;28;20209;-78
2023/06/22 18:38:41;;;;;;;1.25;1.25;;;;;;;;;;10268375;28;20224;-81
2023/06/22 18:43:42;;;;;;;0.70;0.70;;;;;;;;;;10263968;28;20236;-79
2023/06/22 18:48:43;;;;;;;0.85;0.82;;;;;;;;;;10253809;28;20224;-77
2023/06/22 18:53:44;;;;;;;1.42;0.75;;;;;;;;;;10267579;28;20727;-77
2023/06/22 18:58:55;;;;;;;1.15;0.90;;;;;;;;;;10265335;28;20252;-78
2023/06/22 19:03:58;;;;;;;1.83;0.90;;;;;;;;;;10291154;28;20695;-79
2023/06/22 19:09:13;;;;;;;1.17;1.17;;;;;;;;;;10286462;28;20224;-78
2023/06/22 19:14:24;;;;;;;1.65;1.05;;;;;;;;;;10274249;28;20212;-78
2023/06/22 19:19:25;;;;;;;0.88;0.88;;;;;;;;;;10267403;28;20260;-75
2023/06/22 19:24:30;;;;;;;1.95;1.00;;;;;;;;;;10254854;28;20218;-76
2023/06/22 19:29:31;;;;;;;3.17;0.77;;;;;;;;;;10258349;28;20223;-77
2023/06/22 19:34:36;;;;;;;1.85;0.75;;;;;;;;;;10260660;28;20587;-76
2023/06/22 19:39:37;;;;;;;0.70;0.70;;;;;;;;;;10291417;28;20228;-75
2023/06/22 19:44:38;;;;;;;1.27;0.70;;;;;;;;;;10274989;28;20295;-77
2023/06/22 19:49:39;;;;;;;4.88;0.80;;;;;;;;;;10294189;28;20274;-77
2023/06/22 19:54:40;;;;;;;4.90;1.30;;;;;;;;;;10274727;28;20308;-76
2023/06/22 19:59:44;;;;;;;1.10;1.10;;;;;;;;;;10276049;28;20208;-78
2023/06/22 20:04:45;;;;;;;2.92;1.02;;;;;;;;;;10284540;28;20607;-79
2023/06/22 20:09:46;;;;;;;1.75;0.98;;;;;;;;;;10262568;28;20228;-79
2023/06/22 20:14:47;;;;;;;1.42;0.98;;;;;;;;;;10282317;28;20711;-81
2023/06/22 20:19:53;;;;;;;1.00;1.00;;;;;;;;;;10277694;28;21427;-75
2023/06/22 20:24:54;;;;;;;0.93;0.93;;;;;;;;;;10241676;28;20248;-76
2023/06/22 20:29:55;;;;;;;4.88;1.10;;;;;;;;;;10256016;28;20236;-76
2023/06/22 20:34:56;;;;;;;2.13;1.10;;;;;;;;;;10273054;28;20239;-76
2023/06/22 20:39:57;;;;;;;0.98;0.98;;;;;;;;;;10256889;28;20223;-76
2023/06/22 20:44:58;;;;;;;1.88;0.98;;;;;;;;;;10252682;28;20331;-76
2023/06/22 20:49:59;;;;;;;0.82;0.60;;;;;;;;;;10290962;28;20225;-76
2023/06/22 20:55:00;;;;;;;2.13;0.63;;;;;;;;;;10273356;28;20227;-74
2023/06/22 21:00:05;;;;;;;0.85;0.85;;;;;;;;;;10259909;28;20260;-75
2023/06/22 21:05:07;;;;;;;1.75;0.80;;;;;;;;;;10281181;28;20221;-75
2023/06/22 21:10:08;;;;;;;0.90;0.90;;;;;;;;;;10269100;28;20220;-74
2023/06/22 21:15:09;;;;;;;0.70;0.70;;;;;;;;;;10272092;28;21218;-77
2023/06/22 21:20:11;;;;;;;1.63;0.80;;;;;;;;;;10269338;28;20196;-74
2023/06/22 21:25:13;;;;;;;0.40;0.40;;;;;;;;;;10252855;28;20216;-76
2023/06/22 21:30:17;;;;;;;1.27;0.52;;;;;;;;;;10280915;28;20929;-75
2023/06/22 21:35:18;;;;;;;1.25;0.77;;;;;;;;;;10288305;28;20206;-75
2023/06/22 21:40:19;;;;;;;0.40;0.40;;;;;;;;;;10282220;28;20185;-74
2023/06/22 21:45:20;;;;;;;1.40;0.55;;;;;;;;;;10278356;28;20209;-76
2023/06/22 21:50:21;;;;;;;0.50;0.50;;;;;;;;;;10274638;28;20661;-75
2023/06/22 21:55:22;;;;;;;0.40;0.40;;;;;;;;;;10279375;28;20640;-74
2023/06/22 22:00:23;;;;;;;0.77;0.73;;;;;;;;;;10283795;28;20224;-76
2023/06/22 22:05:24;;;;;;;0.43;0.40;;;;;;;;;;10289816;28;20279;-73
2023/06/22 22:10:25;;;;;;;0.70;0.70;;;;;;;;;;10260182;28;20240;-76
2023/06/22 22:15:26;;;;;;;0.80;0.80;;;;;;;;;;10286660;28;25419;-75
2023/06/22 22:20:27;;;;;;;1.00;1.00;;;;;;;;;;10274104;28;20233;-74
2023/06/22 22:25:28;;;;;;;1.10;1.10;;;;;;;;;;10275319;28;20221;-75
2023/06/22 22:30:29;;;;;;;1.23;1.23;;;;;;;;;;10286257;28;20221;-74
2023/06/22 22:35:30;;;;;;;1.73;1.73;;;;;;;;;;10271135;28;20223;-74
2023/06/22 22:40:31;;;;;;;2.15;2.05;;;;;;;;;;10272017;28;20267;-74
2023/06/22 22:45:32;;;;;;;2.40;2.40;;;;;;;;;;10281034;28;20639;-74
2023/06/22 22:50:33;;;;;;;2.83;2.63;;;;;;;;;;10288076;28;20710;-74
2023/06/22 22:55:35;;;;;;;3.40;3.30;;;;;;;;;;10268156;28;20239;-74
2023/06/22 23:00:36;;;;;;;3.00;2.85;;;;;;;;;;10272260;28;20925;-73
2023/06/22 23:05:38;;;;;;;20.25;3.83;;;;;;;;;;10275081;28;20220;-74
2023/06/22 23:10:39;;;;;;;3.97;3.78;;;;;;;;;;10266960;28;20239;-74
2023/06/22 23:15:40;;;;;;;4.45;4.18;;;;;;;;;;10273638;28;20226;-75
2023/06/22 23:20:41;;;;;;;5.10;4.82;;;;;;;;;;10262861;28;20217;-74
2023/06/22 23:25:42;;;;;;;5.63;5.20;;;;;;;;;;10265658;28;20998;-74
2023/06/22 23:30:44;;;;;;;6.15;5.72;;;;;;;;;;10285391;28;20601;-74
2023/06/22 23:35:45;;;;;;;5.78;5.38;;;;;;;;;;10279969;28;20225;-75
2023/06/22 23:40:46;;;;;;;5.57;5.22;;;;;;;;;;10285199;28;20695;-75
2023/06/22 23:45:47;;;;;;;6.13;5.72;;;;;;;;;;10280567;28;20228;-74
2023/06/22 23:50:48;;;;;;;6.55;6.10;;;;;;;;;;10254523;28;20263;-74
2023/06/22 23:55:50;;;;;;;6.15;5.70;;;;;;;;;;10269870;28;20229;-75
